sensor_id;sensor_type;location;lat;lon;timestamp;temperature;humidity
8736;DHT22;4404;49.308;12.178;2023-03-14T08:06:44;8.30;99.90
8736;DHT22;4404;49.308;12.178;2023-03-14T08:12:46;8.60;99.90
8736;DHT22;4404;49.308;12.178;2023-03-14T08:18:48;9.10;99.90
8736;DHT22;4404;49.308;12.178;2023-03-14T08:24:52;9.30;99.90
8736;DHT22;4404;49.308;12.178;2023-03-14T08:30:55;9.40;99.90
8736;DHT22;4404;49.308;12.178;2023-03-14T08:36:58;9.50;99.90
8736;DHT22;4404;49.308;12.178;2023-03-14T08:43:07;9.60;99.90
8736;DHT22;4404;49.308;12.178;2023-03-14T08:49:13;9.60;99.90
8736;DHT22;4404;49.308;12.178;2023-03-14T08:55:25;9.60;99.90
8736;DHT22;4404;49.308;12.178;2023-03-14T09:01:29;9.60;99.90
8736;DHT22;4404;49.308;12.178;2023-03-14T09:07:31;9.70;99.90
8736;DHT22;4404;49.308;12.178;2023-03-14T09:19:37;9.90;99.90
8736;DHT22;4404;49.308;12.178;2023-03-14T09:25:41;10.00;99.90
8736;DHT22;4404;49.308;12.178;2023-03-14T09:31:44;10.10;99.90
8736;DHT22;4404;49.308;12.178;2023-03-14T09:37:50;10.20;99.90
8736;DHT22;4404;49.308;12.178;2023-03-14T09:44:00;10.30;99.90
8736;DHT22;4404;49.308;12.178;2023-03-14T09:50:11;10.30;99.90
8736;DHT22;4404;49.308;12.178;2023-03-14T09:56:19;10.50;99.90
8736;DHT22;4404;49.308;12.178;2023-03-14T10:02:28;10.60;99.90
8736;DHT22;4404;49.308;12.178;2023-03-14T10:08:36;10.80;99.90
8736;DHT22;4404;49.308;12.178;2023-03-14T10:14:53;10.80;99.90
8736;DHT22;4404;49.308;12.178;2023-03-14T10:21:05;11.10;99.90
8736;DHT22;4404;49.308;12.178;2023-03-14T10:27:28;11.20;99.90
8736;DHT22;4404;49.308;12.178;2023-03-14T10:33:40;11.30;99.90
8736;DHT22;4404;49.308;12.178;2023-03-14T10:39:46;11.30;99.90
8736;DHT22;4404;49.308;12.178;2023-03-14T10:45:54;11.60;99.90
8736;DHT22;4404;49.308;12.178;2023-03-14T10:52:12;11.80;99.90
8736;DHT22;4404;49.308;12.178;2023-03-14T10:58:22;12.10;99.90
8736;DHT22;4404;49.308;12.178;2023-03-14T11:04:45;12.10;99.90
8736;DHT22;4404;49.308;12.178;2023-03-14T11:11:11;12.20;99.90
8736;DHT22;4404;49.308;12.178;2023-03-14T11:17:29;12.10;99.90
8736;DHT22;4404;49.308;12.178;2023-03-14T11:23:40;12.30;99.90
8736;DHT22;4404;49.308;12.178;2023-03-14T11:30:05;12.20;99.90
8736;DHT22;4404;49.308;12.178;2023-03-14T11:36:24;12.10;99.90
8736;DHT22;4404;49.308;12.178;2023-03-14T11:42:31;12.10;99.90
8736;DHT22;4404;49.308;12.178;2023-03-14T11:49:01;12.00;99.90
8736;DHT22;4404;49.308;12.178;2023-03-14T11:55:12;12.00;99.90
8736;DHT22;4404;49.308;12.178;2023-03-14T12:01:40;11.90;99.90
8736;DHT22;4404;49.308;12.178;2023-03-14T12:08:19;11.90;99.90
8736;DHT22;4404;49.308;12.178;2023-03-14T12:21:55;12.30;99.90
8736;DHT22;4404;49.308;12.178;2023-03-14T12:28:19;12.50;99.90
8736;DHT22;4404;49.308;12.178;2023-03-14T12:34:31;12.40;99.90
8736;DHT22;4404;49.308;12.178;2023-03-14T12:40:38;12.30;99.90
8736;DHT22;4404;49.308;12.178;2023-03-14T12:53:19;12.10;99.90
8736;DHT22;4404;49.308;12.178;2023-03-14T12:59:47;12.20;99.90
8736;DHT22;4404;49.308;12.178;2023-03-14T13:06:03;12.10;99.90
8736;DHT22;4404;49.308;12.178;2023-03-14T13:12:10;12.00;99.90
8736;DHT22;4404;49.308;12.178;2023-03-14T13:18:16;11.90;99.90
8736;DHT22;4404;49.308;12.178;2023-03-14T13:24:27;11.80;99.90
8736;DHT22;4404;49.308;12.178;2023-03-14T13:30:45;11.70;99.90
8736;DHT22;4404;49.308;12.178;2023-03-14T13:36:52;11.70;99.90
8736;DHT22;4404;49.308;12.178;2023-03-14T13:43:14;11.80;99.90
8736;DHT22;4404;49.308;12.178;2023-03-14T13:49:22;11.70;99.90
8736;DHT22;4404;49.308;12.178;2023-03-14T13:55:31;11.70;99.90
8736;DHT22;4404;49.308;12.178;2023-03-14T14:07:46;11.90;99.90
8736;DHT22;4404;49.308;12.178;2023-03-14T14:13:53;11.90;99.90
8736;DHT22;4404;49.308;12.178;2023-03-14T14:20:02;11.80;99.90
8736;DHT22;4404;49.308;12.178;2023-03-14T14:26:06;11.90;99.90
8736;DHT22;4404;49.308;12.178;2023-03-14T14:32:12;11.60;99.90
8736;DHT22;4404;49.308;12.178;2023-03-14T14:38:17;11.40;99.90
8736;DHT22;4404;49.308;12.178;2023-03-14T14:44:28;11.10;99.90
8736;DHT22;4404;49.308;12.178;2023-03-14T14:50:37;11.00;99.90
8736;DHT22;4404;49.308;12.178;2023-03-14T14:57:15;10.90;99.90
8736;DHT22;4404;49.308;12.178;2023-03-14T15:15:26;10.70;99.90
8736;DHT22;4404;49.308;12.178;2023-03-14T15:29:29;10.50;99.90
8736;DHT22;4404;49.308;12.178;2023-03-14T15:35:36;10.30;99.90
8736;DHT22;4404;49.308;12.178;2023-03-14T15:47:41;10.10;99.90
8736;DHT22;4404;49.308;12.178;2023-03-14T15:53:45;9.80;99.90
8736;DHT22;4404;49.308;12.178;2023-03-14T16:05:50;9.70;99.90
8736;DHT22;4404;49.308;12.178;2023-03-14T16:12:24;9.70;99.90
8736;DHT22;4404;49.308;12.178;2023-03-14T16:18:28;9.50;99.90
8736;DHT22;4404;49.308;12.178;2023-03-14T16:24:31;9.20;99.90
8736;DHT22;4404;49.308;12.178;2023-03-14T16:30:37;9.10;99.90
8736;DHT22;4404;49.308;12.178;2023-03-14T16:42:43;9.00;99.90
8736;DHT22;4404;49.308;12.178;2023-03-14T16:54:53;8.90;99.90
8736;DHT22;4404;49.308;12.178;2023-03-14T17:00:55;9.10;99.90
